Date,TemperatureHighF,TemperatureAvgF,TemperatureLowF,DewpointHighF,DewpointAvgF,DewpointLowF,HumidityHigh,HumidityAvg,HumidityLow,PressureMaxIn,PressureMinIn,WindSpeedMaxMPH,WindSpeedAvgMPH,GustSpeedMaxMPH,PrecipitationSumIn
2013-1-1,57.9,55.3,52.3,51.2,47.9,43.6,83,76,71,30.32,30.11,6,2,6,0.01
2013-1-2,55.2,51.4,44.1,51.5,47.0,39.4,91,85,79,30.36,30.05,13,4,13,0.14
2013-1-3,44.2,42.3,37.9,40.9,37.7,33.1,88,84,79,30.43,30.29,10,3,10,0.10
2013-1-4,52.7,41.7,32.7,35.6,32.5,28.4,87,71,50,30.50,30.36,8,2,9,0.06
2013-1-5,54.9,41.2,30.2,34.6,30.5,24.0,79,67,45,30.56,30.45,8,1,8,0.02
2013-1-6,53.2,49.0,42.1,44.5,41.6,34.7,82,76,68,30.45,30.23,7,1,7,0.01
2013-1-7,55.2,46.6,39.2,42.7,36.8,32.6,85,70,46,30.59,30.30,15,4,15,0.00
2013-1-8,63.0,47.7,36.7,52.7,40.5,30.6,82,76,65,30.61,30.51,7,2,7,0.00
2013-1-9,70.7,58.1,46.2,57.8,50.4,40.7,86,76,60,30.58,30.51,8,1,8,0.00
2013-1-10,64.8,58.0,51.1,53.5,47.5,37.8,89,69,52,30.65,30.56,14,4,14,0.00
2013-1-11,73.4,60.8,47.8,67.7,55.4,39.2,89,82,68,30.58,30.32,8,2,9,0.17
2013-1-12,77.7,67.4,60.4,67.2,60.9,56.7,91,80,62,30.35,30.26,8,2,8,0.00
2013-1-13,78.1,66.1,57.6,66.3,59.1,52.8,88,79,63,30.34,30.25,8,2,9,0.00
2013-1-14,77.9,67.1,57.4,66.6,60.2,53.4,91,79,62,30.36,30.27,15,3,15,0.00
2013-1-15,78.1,62.9,56.3,67.4,57.4,51.5,92,83,64,30.33,30.22,8,3,9,0.00
2013-1-16,78.3,67.1,58.5,67.4,60.7,54.9,93,81,63,30.23,30.11,13,3,13,0.00
2013-1-17,63.3,57.2,43.2,60.0,53.7,39.3,90,88,83,30.14,29.89,16,5,16,1.34
2013-1-18,50.4,42.3,36.3,39.3,32.7,26.6,89,70,44,30.68,30.13,18,6,18,0.02
2013-1-19,60.6,42.7,32.7,43.4,31.1,26.1,80,65,49,30.67,30.44,8,2,8,0.00
2013-1-20,63.0,51.3,47.3,41.9,36.3,35.1,63,57,43,30.45,30.17,5,0,5,0.00
2013-1-21,64.0,49.7,47.3,44.5,37.2,35.3,65,62,49,30.22,30.05,7,1,7,0.00
2013-1-22,50.4,42.9,32.0,36.4,22.2,16.3,61,44,32,30.42,30.12,13,4,13,0.00
2013-1-23,46.8,34.8,26.2,20.8,14.4,6.7,56,44,30,30.55,30.31,10,2,10,0.00
2013-1-24,48.9,39.1,26.4,38.5,22.5,7.2,70,52,36,30.67,30.16,22,8,22,0.00
2013-1-25,38.7,31.2,22.6,30.1,20.0,8.0,82,64,46,30.68,30.29,9,4,9,0.07
2013-1-26,49.5,38.6,30.4,36.2,30.3,25.4,83,73,59,30.55,30.28,12,4,12,0.01
2013-1-27,46.6,35.8,27.7,30.6,26.6,23.6,88,70,49,30.73,30.55,14,4,14,0.00
2013-1-28,62.4,47.5,34.2,50.5,39.1,25.0,84,73,64,30.67,30.43,8,2,8,0.00
2013-1-29,76.3,61.5,51.4,62.9,54.2,47.4,87,78,58,30.43,30.29,9,3,9,0.01
2013-1-30,69.3,68.6,68.4,62.8,62.6,62.1,82,81,80,29.82,29.76,18,10,18,0.01
2013-1-31,70.0,53.5,43.5,65.6,39.2,27.0,86,60,39,30.25,29.68,20,8,20,0.17
2013-2-1,54.1,43.6,29.3,33.1,22.2,11.5,56,44,24,30.55,30.19,17,6,17,0.00
2013-2-2,50.7,38.0,25.3,38.5,23.2,10.8,71,55,48,30.58,30.21,8,2,9,0.00
2013-2-3,56.3,46.3,37.4,38.7,33.2,27.0,76,61,39,30.21,30.02,13,3,13,0.00
2013-2-4,54.9,42.4,30.9,34.3,28.9,22.5,73,60,43,30.32,30.15,8,1,6,0.00
2013-2-5,67.6,53.2,40.6,43.5,38.6,32.7,77,60,36,30.22,30.05,12,3,12,0.00
2013-2-6,51.4,51.4,51.4,45.8,45.8,45.8,81,81,81,30.28,30.28,2,2,2,0.00
2013-2-7,61.5,54.3,41.7,52.9,49.7,37.8,92,85,67,30.40,29.93,20,10,20,1.36
2013-2-8,59.7,54.3,47.7,53.6,47.5,39.0,93,79,64,30.17,29.71,16,7,16,0.56
2013-2-9,55.0,45.0,34.7,39.0,29.6,25.7,71,56,34,30.53,30.17,16,4,16,0.00
2013-2-10,55.6,45.1,32.0,49.2,35.9,23.0,84,70,57,30.63,30.41,12,3,12,0.00
2013-2-11,66.7,61.8,54.7,61.7,57.0,48.6,88,84,79,30.46,30.12,14,6,14,0.12
2013-2-12,66.6,59.3,54.0,57.9,51.6,44.4,90,77,48,30.25,30.08,9,3,9,0.28
2013-2-13,62.2,54.5,48.9,57.7,50.1,44.2,90,85,80,30.14,29.80,14,4,14,0.63
2013-2-14,57.4,49.2,42.8,47.0,40.4,36.4,84,72,58,30.24,29.96,10,2,10,0.00
2013-2-15,61.0,47.4,36.3,41.5,36.8,31.4,84,68,43,30.25,30.12,8,1,8,0.00
2013-2-16,55.0,42.1,34.9,42.8,35.6,30.8,87,78,63,30.12,29.87,9,3,9,0.19
2013-2-17,40.6,35.2,30.2,31.9,21.0,13.6,85,58,33,30.44,30.04,18,7,18,0.02
2013-2-18,52.5,38.4,25.5,30.1,23.5,17.7,72,56,39,30.61,30.44,7,2,7,0.00
2013-2-19,64.9,50.9,34.9,54.2,42.9,25.4,86,74,66,30.46,30.08,13,4,13,0.00
2013-2-20,59.7,48.8,39.9,43.9,33.5,26.6,83,58,32,30.28,30.13,10,3,10,0.00
2013-2-21,60.1,44.9,33.4,37.3,29.2,21.4,73,55,32,30.39,30.25,10,3,10,0.00
2013-2-22,51.1,46.0,40.6,47.6,37.4,27.4,88,72,59,30.48,30.20,13,6,13,0.27
2013-2-23,52.5,48.5,45.0,49.4,44.9,41.6,89,87,86,30.21,29.98,10,3,10,0.48
2013-2-24,64.6,52.9,45.5,50.7,45.8,39.2,90,78,55,30.16,29.91,10,3,10,0.02
2013-2-25,46.6,43.4,38.3,39.2,33.9,30.2,89,70,56,30.34,30.15,14,6,14,0.00
2013-2-26,66.6,56.7,42.6,63.9,52.9,33.5,95,87,70,30.23,29.76,16,7,16,3.29
2013-2-27,64.4,55.0,48.4,56.4,45.4,41.2,87,71,53,29.98,29.79,14,5,14,0.00
2013-2-28,60.4,49.8,39.9,42.9,38.0,30.5,81,65,46,30.00,29.86,12,5,12,0.00
2013-3-1,57.0,46.4,37.9,35.4,31.7,28.7,71,57,42,30.06,29.95,10,3,10,0.00
2013-3-2,55.8,43.2,34.0,33.7,29.5,26.2,77,60,42,30.06,29.95,12,2,12,0.00
2013-3-3,49.6,40.7,33.4,31.1,25.0,22.2,71,54,39,30.12,29.99,16,4,16,0.00
2013-3-4,51.4,39.5,30.6,24.0,20.9,17.3,62,48,32,30.28,30.12,15,4,15,0.00
2013-3-5,70.3,52.4,35.1,52.5,36.2,21.7,77,55,35,30.28,29.79,16,5,16,0.09
2013-3-6,59.9,50.2,43.0,53.4,34.9,26.0,79,57,39,30.13,29.69,23,11,23,0.39
2013-3-7,57.2,46.4,36.3,34.2,30.4,26.9,70,54,40,30.35,30.12,15,6,15,0.00
2013-3-8,56.1,45.5,34.9,30.2,27.4,24.8,68,51,33,30.40,30.26,14,5,14,0.00
2013-3-9,64.0,49.1,37.8,40.0,32.0,26.3,68,53,36,30.45,30.37,13,4,13,0.00
2013-3-10,63.1,49.2,34.5,37.5,30.1,19.4,78,52,21,30.48,30.40,10,3,10,0.00
2013-3-11,74.8,58.6,45.3,55.4,48.5,36.1,89,71,48,30.41,30.12,10,3,10,0.01
2013-3-12,72.3,64.2,58.1,64.9,58.3,53.3,89,81,71,30.12,29.92,10,3,10,0.67
2013-3-13,63.7,54.3,44.2,53.6,37.3,29.4,85,55,34,30.22,30.04,13,5,13,0.00
2013-3-14,53.6,44.2,34.5,29.9,23.6,19.5,55,44,33,30.40,30.22,13,6,13,0.00
2013-3-15,64.6,48.8,32.5,39.6,30.5,23.5,71,51,32,30.37,30.14,10,3,12,0.00
2013-3-16,82.0,64.9,52.9,53.8,47.1,39.8,65,54,37,30.14,29.92,16,7,16,0.00
2013-3-17,73.8,59.1,49.8,53.1,47.9,43.8,82,67,48,30.28,30.03,18,6,18,0.00
2013-3-18,68.2,55.7,47.5,54.0,47.6,41.6,83,75,59,30.29,30.03,12,4,12,0.00
2013-3-19,70.0,59.9,52.9,53.5,48.8,35.7,89,69,43,30.13,29.89,13,4,13,0.48
2013-3-20,63.0,52.3,43.2,36.3,27.5,17.9,62,40,21,30.27,29.97,12,3,12,0.00
2013-3-21,54.7,44.7,36.0,32.2,26.1,16.9,74,51,27,30.12,29.85,14,5,14,0.00
2013-3-22,56.8,42.4,31.6,31.5,20.4,13.5,56,42,29,30.26,30.12,10,3,10,0.00
2013-3-23,58.6,47.2,36.3,42.0,34.4,26.6,73,61,46,30.21,30.06,8,1,8,0.03
2013-3-24,57.9,49.2,43.9,54.7,44.8,36.5,93,85,73,30.08,29.56,18,6,18,1.05
2013-3-25,55.9,48.5,42.8,42.4,36.6,27.2,88,66,42,30.00,29.67,17,7,17,0.00
2013-3-26,56.1,45.2,36.1,32.6,28.3,24.7,64,52,39,30.26,30.00,13,5,13,0.00
2013-3-27,57.2,46.7,36.9,30.3,27.4,23.5,64,48,32,30.37,30.26,14,6,14,0.00
2013-3-28,58.5,46.8,35.6,30.5,26.0,21.9,61,45,31,30.41,30.30,14,4,14,0.00
2013-3-29,64.2,49.4,34.2,37.2,30.3,23.2,67,49,30,30.49,30.36,10,3,10,0.00
2013-3-30,66.0,54.5,48.6,47.2,41.8,35.2,78,63,44,30.42,30.29,6,2,6,0.04
2013-3-31,77.7,62.2,48.6,58.7,51.3,38.8,85,69,52,30.30,30.03,12,4,12,0.05
2013-4-1,75.7,65.0,56.5,63.0,56.0,49.0,86,74,53,30.06,29.96,10,4,10,0.08
2013-4-2,65.7,56.0,47.1,51.4,39.9,30.6,82,56,38,30.29,30.06,14,4,14,0.00
2013-4-3,61.0,52.5,46.0,43.2,37.2,29.6,79,58,33,30.43,30.26,14,4,15,0.00
2013-4-4,58.5,50.8,47.3,55.7,45.0,37.9,93,81,65,30.43,29.92,17,7,17,1.33
2013-4-5,58.8,50.5,43.5,55.5,45.1,40.5,90,82,67,30.18,29.93,13,4,13,0.00
2013-4-6,67.1,52.4,40.3,46.9,40.4,35.2,88,66,40,30.44,30.18,13,5,13,0.00
2013-4-7,73.8,57.5,39.7,58.4,46.9,33.3,85,69,55,30.43,30.31,7,2,7,0.00
2013-4-8,83.5,67.2,52.0,63.7,55.5,46.0,85,68,48,30.36,30.27,9,3,9,0.00
2013-4-9,87.3,71.8,57.7,67.8,59.8,51.9,85,68,45,30.39,30.27,8,3,8,0.00
2013-4-10,88.3,73.2,62.8,66.8,60.8,56.9,85,67,45,30.32,30.18,10,5,11,0.00
2013-4-11,88.2,73.8,63.3,70.3,64.1,57.7,88,73,53,30.19,30.03,14,5,14,0.00
2013-4-12,83.5,72.0,67.8,74.1,66.4,62.5,90,83,69,30.04,29.86,15,6,15,2.11
2013-4-13,70.9,64.7,54.0,64.5,53.9,46.2,88,69,49,30.18,29.91,13,3,13,0.01
2013-4-14,79.3,64.0,47.8,59.3,51.2,42.0,85,65,43,30.27,30.18,4,1,4,0.00
2013-4-15,74.5,66.5,59.9,62.4,58.6,55.3,87,76,66,30.34,30.11,18,4,19,2.31
2013-4-16,81.9,67.9,58.5,66.0,59.2,54.8,89,75,55,30.42,30.32,9,3,9,0.00
2013-4-17,85.5,70.0,56.1,67.8,59.1,50.7,85,70,48,30.40,30.30,6,2,6,0.00
2013-4-18,83.3,70.5,57.6,66.0,60.9,52.1,87,73,53,30.35,30.23,13,3,13,0.01
2013-4-19,84.6,73.0,68.4,73.9,66.9,63.2,87,81,67,30.23,30.04,13,5,13,1.44
2013-4-20,69.4,59.4,50.9,64.7,50.0,41.1,88,72,53,30.40,30.03,13,5,13,1.07
2013-4-21,69.8,54.3,43.9,51.0,42.3,36.8,87,65,45,30.58,30.41,17,6,17,0.00
2013-4-22,61.9,52.3,43.5,50.4,44.4,36.3,87,75,64,30.57,30.31,20,9,20,0.01
2013-4-23,69.1,57.8,50.7,53.6,50.1,47.5,90,77,55,30.35,30.26,13,5,13,0.00
2013-4-24,80.8,64.6,47.5,63.6,54.3,42.3,86,71,52,30.34,30.22,9,2,9,0.00
2013-4-25,77.9,65.6,54.7,62.6,57.6,48.6,84,76,56,30.42,30.21,12,4,13,0.01
2013-4-26,73.8,59.6,46.6,52.1,46.3,39.5,85,64,35,30.55,30.41,12,4,12,0.01
2013-4-27,74.1,62.8,52.2,52.0,46.6,38.6,83,59,29,30.53,30.43,12,4,12,0.00
2013-4-28,74.8,66.7,60.3,56.9,52.5,49.7,75,61,43,30.43,30.26,12,5,12,0.00
2013-4-29,78.4,68.0,63.5,66.6,60.2,56.6,87,77,66,30.26,30.14,8,3,8,1.10